Terminal Aerodrome Forecast
Issued by NWS Shreveport, LA

Home | Current Version | Previous Version | Text Only | Print | Product List | Glossary On
Versions: 1 2 3 4 5 6 7 8 9 10 11 12 13 14
000
FTUS44 KSHV 030539
TAFTXK
TAF
KTXK 030539Z 0306/0406 21003KT P6SM SCT250
     FM030900 21007KT P6SM SCT050 BKN150 OVC250
     FM031200 22012G17KT P6SM VCTS BKN040CB OVC140
     FM032200 24009KT P6SM VCTS BKN040CB OVC250
     FM040200 21007KT P6SM VCSH BKN050=

USA.gov is the U.S. government's official web portal to all federal, state and local government web resources and services.